Time;durP1;ratioP1;P1;durP2;ratioP2;P2;SDS_P1;SDS_P2;PMS_P1;PMS_P2;Temp;Humidity;BMP_temperature;BMP_pressure;BME280_temperature;BME280_humidity;BME280_pressure;Samples;Min_cycle;Max_cycle;Signal;HPM_P1;HPM_P2
2023/08/07 00:02:10;;;;;;;3.30;1.65;;;16.50;66.50;;;;;;5054697;28;20017;-66
2023/08/07 00:04:38;;;;;;;4.28;1.75;;;16.70;65.60;;;;;;5054706;28;20032;-65
2023/08/07 00:07:06;;;;;;;3.65;1.55;;;16.80;66.40;;;;;;5054562;28;20044;-66
2023/08/07 00:09:33;;;;;;;5.32;1.63;;;16.60;66.30;;;;;;5054778;28;20055;-65
2023/08/07 00:12:01;;;;;;;6.20;2.28;;;16.70;65.10;;;;;;5054826;28;20021;-65
2023/08/07 00:14:28;;;;;;;21.48;11.25;;;16.90;65.70;;;;;;5054664;28;20032;-66
2023/08/07 00:16:55;;;;;;;5.18;1.58;;;17.60;64.10;;;;;;5054682;28;20032;-66
2023/08/07 00:19:23;;;;;;;4.78;2.13;;;18.20;61.70;;;;;;5053797;28;20033;-66
2023/08/07 00:21:51;;;;;;;5.47;1.98;;;18.30;61.40;;;;;;5054712;28;20017;-66
2023/08/07 00:24:18;;;;;;;7.25;2.90;;;17.60;62.80;;;;;;5053831;28;20021;-66
2023/08/07 00:26:46;;;;;;;4.95;1.80;;;17.50;63.30;;;;;;5056335;28;20074;-66
2023/08/07 00:29:13;;;;;;;4.05;1.40;;;17.50;64.20;;;;;;5058540;28;20032;-66
2023/08/07 00:31:41;;;;;;;4.78;1.40;;;17.40;64.10;;;;;;5058419;28;20021;-67
2023/08/07 00:34:09;;;;;;;4.55;1.67;;;17.30;64.40;;;;;;5057298;28;20025;-65
2023/08/07 00:36:37;;;;;;;4.20;1.50;;;17.30;64.30;;;;;;5058300;28;20017;-65
2023/08/07 00:39:04;;;;;;;4.68;1.58;;;17.60;64.10;;;;;;5057313;28;20456;-67
2023/08/07 00:41:32;;;;;;;3.38;1.48;;;17.80;63.70;;;;;;5058332;28;20029;-68
2023/08/07 00:43:59;;;;;;;4.03;1.98;;;17.90;63.30;;;;;;5057369;28;20021;-67
2023/08/07 00:46:29;;;;;;;6.88;2.25;;;18.10;63.20;;;;;;5058239;28;20021;-66
2023/08/07 00:48:57;;;;;;;4.72;1.70;;;18.10;62.60;;;;;;5057338;28;20370;-67
2023/08/07 00:51:25;;;;;;;2.92;1.55;;;18.00;62.70;;;;;;5058017;28;20021;-67
2023/08/07 00:53:53;;;;;;;5.82;1.55;;;18.30;62.20;;;;;;5057002;28;20021;-66
2023/08/07 00:56:21;;;;;;;3.60;1.80;;;18.60;62.60;;;;;;5057088;28;20079;-67
2023/08/07 00:58:49;;;;;;;3.65;1.50;;;19.00;61.40;;;;;;5056815;28;20021;-66
2023/08/07 01:01:17;;;;;;;3.92;1.58;;;19.30;60.60;;;;;;5056641;28;20151;-66
2023/08/07 01:03:45;;;;;;;3.90;1.40;;;19.30;60.50;;;;;;5057738;28;20343;-66
2023/08/07 01:06:12;;;;;;;2.92;1.20;;;18.90;61.20;;;;;;5056658;28;20041;-66
2023/08/07 01:08:40;;;;;;;2.53;1.13;;;19.10;61.50;;;;;;5057666;28;20039;-67
2023/08/07 01:11:36;;;;;;;6.00;1.63;;;19.20;60.60;;;;;;5057795;28;20025;-65
2023/08/07 01:14:19;;;;;;;3.33;1.60;;;19.00;61.50;;;;;;5057824;28;20033;-67
2023/08/07 01:16:49;;;;;;;2.33;1.20;;;18.90;60.60;;;;;;5056925;28;20071;-66
2023/08/07 01:19:25;;;;;;;4.20;1.10;;;18.90;61.60;;;;;;5057505;28;20028;-67
2023/08/07 01:22:14;;;;;;;6.75;1.13;;;19.10;61.30;;;;;;5040197;28;20028;-67
2023/08/07 01:24:44;;;;;;;3.83;1.13;;;19.30;60.00;;;;;;5056597;28;20059;-67
2023/08/07 01:27:20;;;;;;;2.15;1.00;;;19.20;60.10;;;;;;5056367;28;20079;-67
2023/08/07 01:29:56;;;;;;;3.17;1.10;;;19.40;59.50;;;;;;5057456;28;20362;-68
2023/08/07 01:32:43;;;;;;;2.15;0.90;;;19.40;60.30;;;;;;5056401;28;20036;-67
2023/08/07 01:35:15;;;;;;;2.22;1.00;;;19.10;59.50;;;;;;5056977;28;20021;-69
2023/08/07 01:37:45;;;;;;;1.88;0.88;;;19.10;59.40;;;;;;5057017;28;20029;-68
2023/08/07 01:40:16;;;;;;;2.55;1.00;;;19.10;59.50;;;;;;5058921;28;20114;-69
2023/08/07 01:42:44;;;;;;;2.95;1.20;;;19.10;60.00;;;;;;5057643;28;20451;-69
2023/08/07 01:45:12;;;;;;;4.03;1.13;;;18.90;61.30;;;;;;5057116;28;20032;-69
2023/08/07 01:47:40;;;;;;;2.90;1.17;;;18.70;61.20;;;;;;5057034;28;20032;-69
2023/08/07 01:50:08;;;;;;;3.03;1.08;;;18.60;60.90;;;;;;5056956;28;20025;-69
2023/08/07 01:52:35;;;;;;;4.00;1.50;;;18.50;62.10;;;;;;5055722;28;20100;-70
2023/08/07 01:55:02;;;;;;;3.45;0.90;;;18.50;62.20;;;;;;5056915;28;20025;-69
2023/08/07 01:57:31;;;;;;;2.55;1.08;;;18.50;61.60;;;;;;5055925;28;20036;-69
2023/08/07 01:59:58;;;;;;;3.58;1.08;;;18.40;62.50;;;;;;5056732;28;20039;-70
2023/08/07 02:02:26;;;;;;;2.13;1.00;;;18.40;62.40;;;;;;5055962;28;20136;-69
2023/08/07 02:04:53;;;;;;;1.38;0.77;;;18.30;62.50;;;;;;5056757;28;20028;-70
2023/08/07 02:07:21;;;;;;;3.25;1.00;;;18.20;62.60;;;;;;5056453;28;20041;-70
2023/08/07 02:09:49;;;;;;;3.28;1.20;;;18.00;64.30;;;;;;5056627;28;20064;-69
2023/08/07 02:12:17;;;;;;;3.28;0.90;;;17.90;64.50;;;;;;5056664;28;20071;-70
2023/08/07 02:14:45;;;;;;;2.58;1.00;;;17.90;64.50;;;;;;5056548;28;20035;-71
2023/08/07 02:17:12;;;;;;;3.08;1.30;;;17.70;64.50;;;;;;5055475;28;20036;-70
2023/08/07 02:19:40;;;;;;;2.65;1.40;;;17.70;65.10;;;;;;5056351;28;20032;-70
2023/08/07 02:22:07;;;;;;;3.33;1.23;;;17.40;68.20;;;;;;5055512;28;20060;-70
2023/08/07 02:24:35;;;;;;;2.28;0.77;;;16.90;71.50;;;;;;5055432;28;20352;-71
2023/08/07 02:27:02;;;;;;;3.15;1.00;;;16.10;74.20;;;;;;5055308;28;20036;-70
2023/08/07 02:29:30;;;;;;;3.25;1.27;;;15.70;76.30;;;;;;5055273;28;20025;-70
2023/08/07 02:31:57;;;;;;;2.92;0.90;;;15.70;76.70;;;;;;5055304;28;20029;-69
2023/08/07 02:34:25;;;;;;;1.80;0.85;;;15.70;76.60;;;;;;5056243;28;20029;-69
2023/08/07 02:36:53;;;;;;;3.40;1.08;;;15.60;76.90;;;;;;5056049;28;20386;-69
2023/08/07 02:39:20;;;;;;;3.00;0.90;;;15.60;77.20;;;;;;5055917;28;20056;-70
2023/08/07 02:41:48;;;;;;;2.70;0.75;;;15.70;76.40;;;;;;5054935;28;20029;-70
2023/08/07 02:44:17;;;;;;;2.42;0.80;;;15.70;76.30;;;;;;5055985;28;20013;-70
2023/08/07 02:46:45;;;;;;;1.63;0.90;;;15.60;76.50;;;;;;5054783;28;20021;-70
2023/08/07 02:49:13;;;;;;;2.47;1.10;;;15.50;77.40;;;;;;5054384;28;20028;-70
2023/08/07 02:51:40;;;;;;;4.57;1.80;;;15.50;76.80;;;;;;5054716;28;20048;-70
2023/08/07 02:54:08;;;;;;;7.25;1.85;;;15.60;76.90;;;;;;5054696;28;20092;-70
2023/08/07 02:56:35;;;;;;;4.05;1.50;;;15.60;76.50;;;;;;5054583;28;20335;-70
2023/08/07 02:59:03;;;;;;;4.60;1.55;;;15.60;76.00;;;;;;5054786;28;20033;-70
2023/08/07 03:01:30;;;;;;;7.07;1.38;;;15.70;75.80;;;;;;5054574;28;20401;-70
2023/08/07 03:03:58;;;;;;;3.10;0.90;;;15.80;75.80;;;;;;5054558;28;20042;-70
2023/08/07 03:06:26;;;;;;;1.60;0.80;;;15.80;75.20;;;;;;5054271;28;20406;-70
2023/08/07 03:08:53;;;;;;;1.58;0.80;;;16.00;76.10;;;;;;5054355;28;20311;-69
2023/08/07 03:11:21;;;;;;;1.83;1.00;;;16.00;76.70;;;;;;5055333;28;20025;-70
2023/08/07 03:13:49;;;;;;;1.90;0.80;;;16.00;76.60;;;;;;5055349;28;20100;-70
2023/08/07 03:16:16;;;;;;;2.13;0.90;;;16.00;77.00;;;;;;5055327;28;20028;-70
2023/08/07 03:18:44;;;;;;;3.42;1.05;;;16.00;76.80;;;;;;5055170;28;20037;-70
2023/08/07 03:21:12;;;;;;;2.33;0.98;;;16.10;76.90;;;;;;5055113;28;20055;-71
2023/08/07 03:23:39;;;;;;;2.72;0.90;;;16.00;76.60;;;;;;5055295;28;20355;-70
2023/08/07 03:26:09;;;;;;;1.77;0.90;;;16.10;76.40;;;;;;5054252;28;20021;-70
2023/08/07 03:28:37;;;;;;;3.00;0.90;;;16.10;76.30;;;;;;5055146;28;20050;-70
2023/08/07 03:31:05;;;;;;;2.92;1.13;;;16.30;74.90;;;;;;5054186;28;20029;-71
2023/08/07 03:33:33;;;;;;;2.72;1.20;;;16.20;74.80;;;;;;5055177;28;20025;-71
2023/08/07 03:36:01;;;;;;;2.60;1.15;;;16.30;75.00;;;;;;5055149;28;20470;-71
2023/08/07 03:38:28;;;;;;;2.00;0.93;;;16.40;73.80;;;;;;5054089;28;20354;-71
2023/08/07 03:40:56;;;;;;;2.35;1.00;;;16.50;74.20;;;;;;5054140;28;20033;-71
2023/08/07 03:43:23;;;;;;;2.45;1.13;;;16.60;72.60;;;;;;5053925;28;20159;-70
2023/08/07 03:45:59;;;;;;;2.08;0.70;;;16.70;72.00;;;;;;5055045;28;20079;-70
2023/08/07 03:48:26;;;;;;;1.65;0.75;;;16.80;72.40;;;;;;5054009;28;20056;-70
2023/08/07 03:51:02;;;;;;;2.63;0.90;;;16.80;72.20;;;;;;5054925;28;20036;-70
2023/08/07 03:53:29;;;;;;;7.75;1.23;;;16.80;71.90;;;;;;5053918;28;20021;-70
2023/08/07 03:55:56;;;;;;;2.13;0.80;;;16.90;71.80;;;;;;5053910;28;20033;-71
2023/08/07 03:58:24;;;;;;;2.00;0.88;;;17.00;70.90;;;;;;5053730;28;20082;-71
2023/08/07 04:00:52;;;;;;;2.83;1.00;;;16.90;70.80;;;;;;5055141;28;20025;-70
2023/08/07 04:03:21;;;;;;;1.38;1.08;;;16.90;71.90;;;;;;5058117;28;20047;-71
2023/08/07 04:05:53;;;;;;;1.65;0.95;;;16.70;71.60;;;;;;5057800;28;20095;-71
2023/08/07 04:08:22;;;;;;;1.88;0.90;;;16.80;72.10;;;;;;5057838;28;20075;-70
2023/08/07 04:11:07;;;;;;;3.58;1.08;;;16.90;71.40;;;;;;5058910;28;20040;-71
2023/08/07 04:13:35;;;;;;;3.53;0.90;;;16.90;71.60;;;;;;5057831;28;20029;-71
2023/08/07 04:16:04;;;;;;;2.50;0.77;;;16.90;70.80;;;;;;5057810;28;20074;-71
2023/08/07 04:18:33;;;;;;;2.97;0.88;;;16.90;70.80;;;;;;5058648;28;20029;-71
2023/08/07 04:21:01;;;;;;;3.42;1.10;;;17.00;70.30;;;;;;5058603;28;20025;-71
2023/08/07 04:23:28;;;;;;;2.33;0.80;;;17.10;70.10;;;;;;5058555;28;20462;-71
2023/08/07 04:25:56;;;;;;;2.30;0.73;;;17.30;68.50;;;;;;5058664;28;20036;-71
2023/08/07 04:28:24;;;;;;;3.00;0.85;;;17.30;67.80;;;;;;5057489;28;20020;-71
2023/08/07 04:30:52;;;;;;;3.15;0.88;;;17.30;68.20;;;;;;5057487;28;20103;-71
2023/08/07 04:33:21;;;;;;;1.70;0.80;;;17.50;68.80;;;;;;5057485;28;20447;-71
2023/08/07 04:35:48;;;;;;;3.00;0.98;;;17.30;69.40;;;;;;5058376;28;20048;-71
2023/08/07 04:38:17;;;;;;;3.38;0.95;;;17.50;69.20;;;;;;5057328;28;20029;-71
2023/08/07 04:40:46;;;;;;;2.70;1.00;;;17.70;67.90;;;;;;5058274;28;20035;-70
2023/08/07 04:43:15;;;;;;;1.77;0.93;;;17.50;67.80;;;;;;5058288;28;20017;-70
2023/08/07 04:45:44;;;;;;;2.03;1.20;;;17.80;67.10;;;;;;5058345;28;20021;-70
2023/08/07 04:48:12;;;;;;;3.40;0.80;;;18.00;67.10;;;;;;5057336;28;20067;-71
2023/08/07 04:50:40;;;;;;;3.10;1.10;;;18.10;66.70;;;;;;5058603;28;20036;-71
2023/08/07 04:53:08;;;;;;;2.38;0.77;;;18.00;67.50;;;;;;5058820;28;20032;-71
2023/08/07 04:55:35;;;;;;;4.18;1.05;;;17.90;67.20;;;;;;5058322;28;20025;-70
2023/08/07 04:58:03;;;;;;;2.17;0.70;;;17.90;65.10;;;;;;5057530;28;20021;-70
2023/08/07 05:00:31;;;;;;;5.53;1.25;;;17.60;68.10;;;;;;5058320;28;20028;-70
2023/08/07 05:02:58;;;;;;;1.42;0.60;;;17.50;67.60;;;;;;5057146;28;20143;-72
2023/08/07 05:05:26;;;;;;;1.58;0.55;;;17.30;68.80;;;;;;5059404;28;20463;-71
2023/08/07 05:07:55;;;;;;;2.25;0.80;;;17.10;68.90;;;;;;5060124;28;20036;-71
2023/08/07 05:10:22;;;;;;;1.63;0.63;;;17.00;69.20;;;;;;5059636;28;20044;-70
2023/08/07 05:12:55;;;;;;;3.55;1.30;;;16.90;68.60;;;;;;5057587;28;20029;-71
2023/08/07 05:15:28;;;;;;;2.53;0.80;;;16.70;69.00;;;;;;5058379;28;20035;-71
2023/08/07 05:17:56;;;;;;;2.63;0.85;;;16.40;69.70;;;;;;5056907;28;20036;-70
2023/08/07 05:20:23;;;;;;;3.20;0.85;;;16.40;70.50;;;;;;5056622;28;20025;-71
2023/08/07 05:22:51;;;;;;;2.28;0.82;;;16.40;71.70;;;;;;5057718;28;20013;-70
2023/08/07 05:25:18;;;;;;;4.60;1.52;;;16.40;71.70;;;;;;5056495;28;20363;-70
2023/08/07 05:27:47;;;;;;;3.53;1.00;;;16.20;72.60;;;;;;5057547;28;20028;-70
2023/08/07 05:30:15;;;;;;;1.83;0.60;;;16.20;73.10;;;;;;5057816;28;20060;-70
2023/08/07 05:32:43;;;;;;;1.95;0.65;;;16.20;73.20;;;;;;5058394;28;20029;-69
2023/08/07 05:35:11;;;;;;;3.72;1.48;;;16.00;73.50;;;;;;5056869;28;20341;-70
2023/08/07 05:37:38;;;;;;;2.47;0.70;;;16.10;73.70;;;;;;5057264;28;20092;-71
2023/08/07 05:40:07;;;;;;;3.38;1.08;;;15.90;73.80;;;;;;5057284;28;20047;-70
2023/08/07 05:42:34;;;;;;;3.75;1.00;;;15.90;74.30;;;;;;5057368;28;20435;-72
2023/08/07 05:45:03;;;;;;;3.50;1.23;;;15.90;73.80;;;;;;5056400;28;20087;-70
2023/08/07 05:47:32;;;;;;;3.53;1.10;;;16.00;73.50;;;;;;5057258;28;20021;-71
2023/08/07 05:50:00;;;;;;;4.00;1.10;;;15.90;73.10;;;;;;5057114;28;20074;-70
2023/08/07 05:52:28;;;;;;;4.35;1.40;;;15.90;72.80;;;;;;5057313;28;20358;-70
2023/08/07 05:54:55;;;;;;;2.72;1.20;;;16.00;72.40;;;;;;5057107;28;20398;-70
2023/08/07 05:57:23;;;;;;;4.60;1.58;;;15.90;72.00;;;;;;5057344;28;20029;-70
2023/08/07 05:59:50;;;;;;;4.45;0.88;;;15.90;71.20;;;;;;5056262;28;20474;-71
2023/08/07 06:02:19;;;;;;;1.88;1.00;;;15.90;71.20;;;;;;5056016;28;20071;-72
2023/08/07 06:04:47;;;;;;;2.30;0.80;;;15.90;71.00;;;;;;5056745;28;20048;-70
2023/08/07 06:07:14;;;;;;;3.22;1.10;;;15.80;71.70;;;;;;5055905;28;20420;-72
2023/08/07 06:09:42;;;;;;;1.05;0.52;;;15.90;71.80;;;;;;5055792;28;20024;-71
2023/08/07 06:12:10;;;;;;;1.42;0.50;;;15.90;72.10;;;;;;5056609;28;20029;-71
2023/08/07 06:14:38;;;;;;;2.40;1.10;;;15.90;72.30;;;;;;5055728;28;20039;-71
2023/08/07 06:17:06;;;;;;;1.73;0.75;;;15.80;72.30;;;;;;5055601;28;20029;-71
2023/08/07 06:19:34;;;;;;;2.05;0.60;;;15.70;72.20;;;;;;5056110;28;20074;-71
2023/08/07 06:22:01;;;;;;;0.73;0.50;;;15.70;72.30;;;;;;5056522;28;20067;-71
2023/08/07 06:24:29;;;;;;;3.35;0.85;;;15.60;72.20;;;;;;5054684;28;20354;-71
2023/08/07 06:26:57;;;;;;;1.10;0.60;;;15.60;72.90;;;;;;5056392;28;20462;-71
2023/08/07 06:29:24;;;;;;;1.23;0.65;;;15.60;72.80;;;;;;5055413;28;20025;-71
2023/08/07 06:31:51;;;;;;;1.17;0.50;;;15.60;72.80;;;;;;5055277;28;20028;-71
2023/08/07 06:34:24;;;;;;;0.60;0.50;;;15.60;72.30;;;;;;5056200;28;20040;-69
2023/08/07 06:36:50;;;;;;;;;;;15.60;72.40;;;;;;5056358;28;20036;-69
2023/08/07 06:39:18;;;;;;;1.63;0.70;;;15.50;72.70;;;;;;5055112;28;19904;-68
2023/08/07 06:41:45;;;;;;;1.23;0.60;;;15.50;73.00;;;;;;5055083;28;20029;-69
2023/08/07 06:44:13;;;;;;;1.55;0.80;;;15.50;73.30;;;;;;5055982;28;20099;-68
2023/08/07 06:46:40;;;;;;;1.15;0.60;;;15.50;73.70;;;;;;5055922;28;20017;-68
2023/08/07 06:49:08;;;;;;;0.95;0.50;;;15.50;73.70;;;;;;5054894;28;20029;-68
2023/08/07 06:51:35;;;;;;;1.75;0.73;;;15.50;73.60;;;;;;5055830;28;20455;-68
2023/08/07 06:54:04;;;;;;;1.50;0.65;;;15.50;74.00;;;;;;5055705;28;20074;-68
2023/08/07 06:56:31;;;;;;;3.47;0.88;;;15.50;74.80;;;;;;5055771;28;20112;-68
2023/08/07 06:59:00;;;;;;;1.65;0.70;;;15.40;75.70;;;;;;5055723;28;20075;-68
2023/08/07 07:01:29;;;;;;;2.10;0.90;;;15.40;75.50;;;;;;5055483;28;20082;-68
2023/08/07 07:03:56;;;;;;;1.10;0.90;;;15.20;76.00;;;;;;5055546;28;20470;-69
2023/08/07 07:06:25;;;;;;;2.05;1.00;;;15.20;76.90;;;;;;5054394;28;20111;-68
2023/08/07 07:08:56;;;;;;;3.42;1.20;;;15.10;77.70;;;;;;5055562;28;20023;-69
2023/08/07 07:11:24;;;;;;;2.78;1.05;;;15.10;78.40;;;;;;5054554;28;20057;-67
2023/08/07 07:13:55;;;;;;;1.95;1.10;;;15.00;79.10;;;;;;5055590;28;20077;-69
2023/08/07 07:16:23;;;;;;;3.03;1.40;;;14.90;80.10;;;;;;5054388;28;20032;-68
2023/08/07 07:18:55;;;;;;;3.33;1.20;;;14.80;80.80;;;;;;5055237;28;20038;-68
2023/08/07 07:21:23;;;;;;;1.77;1.13;;;14.80;81.10;;;;;;5054357;28;20056;-69
2023/08/07 07:23:51;;;;;;;3.13;1.40;;;14.70;81.90;;;;;;5054326;28;20029;-69
2023/08/07 07:26:18;;;;;;;2.55;1.10;;;14.70;82.20;;;;;;5055169;28;20029;-69
2023/08/07 07:28:46;;;;;;;3.22;1.40;;;14.60;82.40;;;;;;5055109;28;20028;-69
2023/08/07 07:31:14;;;;;;;2.25;1.10;;;14.70;82.60;;;;;;5054108;28;20028;-69
2023/08/07 07:33:41;;;;;;;3.75;1.50;;;14.60;82.80;;;;;;5055028;28;20332;-69
2023/08/07 07:36:14;;;;;;;5.82;1.80;;;14.60;83.00;;;;;;5054915;28;20021;-68
2023/08/07 07:38:41;;;;;;;3.97;1.73;;;14.50;83.00;;;;;;5053875;28;20039;-69
2023/08/07 07:41:11;;;;;;;4.05;1.98;;;14.50;82.80;;;;;;5053692;28;20082;-69
2023/08/07 07:43:39;;;;;;;6.07;2.30;;;14.40;83.10;;;;;;5054905;28;20024;-68
2023/08/07 07:46:06;;;;;;;4.25;1.98;;;14.40;83.10;;;;;;5055047;28;20051;-69
2023/08/07 07:48:34;;;;;;;4.05;1.67;;;14.40;83.60;;;;;;5054953;28;20036;-68
2023/08/07 07:51:03;;;;;;;4.55;1.48;;;14.40;83.20;;;;;;5054926;28;20070;-68
2023/08/07 07:53:31;;;;;;;3.88;1.80;;;14.30;83.00;;;;;;5054947;28;20044;-69
2023/08/07 07:55:58;;;;;;;6.05;2.38;;;14.20;82.80;;;;;;5054979;28;20582;-69
2023/08/07 07:58:26;;;;;;;3.80;1.80;;;14.20;83.30;;;;;;5053818;28;20701;-68
2023/08/07 08:00:54;;;;;;;3.00;1.50;;;14.10;82.80;;;;;;5053773;28;20033;-67
2023/08/07 08:03:23;;;;;;;5.93;1.90;;;14.10;83.10;;;;;;5053716;28;20032;-67
2023/08/07 08:05:52;;;;;;;6.70;2.00;;;14.10;82.70;;;;;;5054768;28;20115;-69
2023/08/07 08:08:20;;;;;;;8.02;2.55;;;14.00;83.00;;;;;;5054801;28;20033;-68
2023/08/07 08:10:48;;;;;;;14.45;8.18;;;14.00;83.50;;;;;;5054762;28;20025;-69
2023/08/07 08:13:18;;;;;;;7.97;3.28;;;14.00;83.20;;;;;;5053655;28;20029;-68
2023/08/07 08:15:46;;;;;;;7.18;2.58;;;14.00;83.40;;;;;;5054588;28;20033;-68
2023/08/07 08:18:14;;;;;;;3.50;1.50;;;14.00;83.20;;;;;;5053647;28;20025;-68
2023/08/07 08:20:41;;;;;;;4.35;2.03;;;13.90;83.20;;;;;;5053682;28;20095;-69
2023/08/07 08:23:09;;;;;;;7.07;2.40;;;13.90;83.30;;;;;;5054404;28;20021;-69
2023/08/07 08:25:36;;;;;;;4.80;1.83;;;13.70;83.10;;;;;;5054678;28;20028;-70
2023/08/07 08:28:04;;;;;;;6.97;2.20;;;13.80;83.10;;;;;;5053732;28;20025;-69
2023/08/07 08:30:32;;;;;;;5.85;2.00;;;13.70;82.70;;;;;;5054646;28;20028;-69
2023/08/07 08:32:59;;;;;;;7.00;2.22;;;13.70;83.00;;;;;;5053612;28;20086;-69
2023/08/07 08:35:27;;;;;;;4.68;1.77;;;13.70;83.00;;;;;;5053666;28;20090;-69
2023/08/07 08:37:55;;;;;;;3.55;1.60;;;13.50;83.60;;;;;;5053718;28;20021;-69
2023/08/07 08:40:24;;;;;;;3.00;1.63;;;13.40;84.60;;;;;;5053637;28;20116;-68
2023/08/07 08:42:53;;;;;;;3.97;1.50;;;13.40;84.90;;;;;;5053575;28;20033;-69
2023/08/07 08:45:22;;;;;;;2.28;1.50;;;13.30;84.90;;;;;;5053456;28;20443;-69
2023/08/07 08:47:55;;;;;;;2.28;1.25;;;13.10;85.50;;;;;;5055942;28;20443;-69
2023/08/07 08:50:23;;;;;;;2.78;1.40;;;13.00;86.00;;;;;;5057468;28;20466;-69
2023/08/07 08:52:53;;;;;;;5.05;1.70;;;12.80;86.50;;;;;;5057042;28;20025;-68
2023/08/07 08:55:21;;;;;;;3.17;1.70;;;12.70;86.90;;;;;;5057085;28;20017;-68
2023/08/07 08:57:53;;;;;;;4.25;1.52;;;12.70;86.90;;;;;;5057924;28;20087;-68
2023/08/07 09:00:22;;;;;;;2.58;1.75;;;12.70;87.10;;;;;;5056937;28;20359;-68
2023/08/07 09:02:51;;;;;;;3.85;1.58;;;12.70;86.80;;;;;;5058074;28;20043;-69
2023/08/07 09:05:20;;;;;;;2.88;1.50;;;12.80;86.30;;;;;;5057734;28;20056;-70
2023/08/07 09:07:49;;;;;;;2.88;1.60;;;12.90;86.20;;;;;;5057774;28;20120;-68
2023/08/07 09:10:17;;;;;;;5.60;2.83;;;12.80;86.80;;;;;;5056795;28;20402;-68
2023/08/07 09:12:56;;;;;;;4.30;2.70;;;12.70;86.80;;;;;;5040226;28;20462;-69
2023/08/07 09:15:25;;;;;;;6.90;4.65;;;12.50;87.80;;;;;;5056821;28;20025;-69
2023/08/07 09:17:55;;;;;;;9.13;5.57;;;12.30;88.20;;;;;;5057605;28;20025;-69
2023/08/07 09:20:23;;;;;;;7.88;5.38;;;12.30;88.50;;;;;;5057559;28;20443;-69
2023/08/07 09:22:51;;;;;;;7.18;4.90;;;12.30;88.70;;;;;;5056456;28;20025;-69
2023/08/07 09:25:32;;;;;;;8.43;5.60;;;12.30;88.30;;;;;;5057559;28;20021;-69
2023/08/07 09:28:06;;;;;;;8.73;6.27;;;12.30;88.40;;;;;;5057410;28;20025;-68
2023/08/07 09:30:36;;;;;;;5.97;4.75;;;12.10;88.50;;;;;;5056416;28;20021;-70
2023/08/07 09:33:05;;;;;;;7.97;4.80;;;12.00;88.90;;;;;;5057411;28;20355;-70
2023/08/07 09:35:34;;;;;;;5.75;4.97;;;12.00;88.90;;;;;;5056342;28;20033;-68
2023/08/07 09:38:03;;;;;;;4.97;4.47;;;12.00;88.90;;;;;;5056204;28;20414;-68
2023/08/07 09:40:31;;;;;;;7.28;4.72;;;12.10;88.20;;;;;;5056209;28;20028;-70
2023/08/07 09:42:58;;;;;;;5.28;3.67;;;12.10;87.80;;;;;;5056129;28;20351;-70
2023/08/07 09:45:29;;;;;;;5.00;3.22;;;12.10;87.70;;;;;;5057167;28;20036;-70
2023/08/07 09:48:06;;;;;;;6.93;4.63;;;12.00;88.00;;;;;;5056139;28;20165;-70
2023/08/07 09:50:34;;;;;;;7.80;5.25;;;11.90;88.30;;;;;;5057180;28;20021;-70
2023/08/07 09:53:01;;;;;;;5.55;4.97;;;11.70;89.00;;;;;;5057077;28;20025;-69
2023/08/07 09:55:29;;;;;;;6.47;5.03;;;11.60;89.50;;;;;;5056944;28;20043;-69
2023/08/07 09:57:57;;;;;;;6.68;4.70;;;11.50;89.80;;;;;;5055429;28;20036;-69
2023/08/07 10:00:24;;;;;;;5.78;4.20;;;11.50;89.80;;;;;;5056076;28;20017;-69
2023/08/07 10:02:52;;;;;;;6.05;3.30;;;11.40;90.10;;;;;;5055990;28;20021;-69
2023/08/07 10:05:20;;;;;;;4.50;3.10;;;11.30;90.50;;;;;;5056638;28;20107;-69
2023/08/07 10:07:48;;;;;;;4.68;3.00;;;11.30;90.50;;;;;;5056699;28;20503;-69
2023/08/07 10:10:16;;;;;;;5.03;3.85;;;11.50;90.40;;;;;;5056050;28;20064;-69
2023/08/07 10:12:45;;;;;;;6.13;4.28;;;11.50;90.10;;;;;;5055625;28;20123;-70
2023/08/07 10:15:14;;;;;;;6.25;4.93;;;11.50;89.80;;;;;;5055687;28;20089;-69
2023/08/07 10:17:43;;;;;;;6.47;4.50;;;11.50;89.80;;;;;;5056501;28;20029;-69
2023/08/07 10:20:12;;;;;;;7.20;5.28;;;11.50;89.80;;;;;;5056545;28;20025;-69
2023/08/07 10:22:41;;;;;;;9.50;6.15;;;11.50;90.00;;;;;;5056528;28;20048;-69
2023/08/07 10:25:09;;;;;;;10.00;5.95;;;11.40;90.40;;;;;;5056472;28;20020;-69
2023/08/07 10:27:42;;;;;;;9.00;5.22;;;11.50;90.70;;;;;;5056356;28;20518;-70
2023/08/07 10:30:13;;;;;;;8.05;4.95;;;11.50;90.70;;;;;;5055388;28;20485;-68
2023/08/07 10:32:42;;;;;;;7.63;5.03;;;11.60;90.20;;;;;;5056303;28;20048;-68
2023/08/07 10:35:10;;;;;;;7.03;4.32;;;11.60;90.10;;;;;;5056278;28;20397;-70
2023/08/07 10:37:45;;;;;;;6.43;5.15;;;11.50;90.20;;;;;;5056211;28;20035;-69
2023/08/07 10:40:14;;;;;;;8.88;5.38;;;11.50;90.40;;;;;;5055359;28;20091;-69
2023/08/07 10:43:18;;;;;;;12.43;7.90;;;11.50;90.60;;;;;;5055144;28;20355;-69
2023/08/07 10:45:45;;;;;;;11.27;6.57;;;11.60;90.50;;;;;;5055180;28;20025;-69
2023/08/07 10:48:14;;;;;;;8.32;5.45;;;11.60;90.50;;;;;;5055999;28;20095;-69
2023/08/07 10:51:08;;;;;;;7.22;5.18;;;11.50;90.80;;;;;;5056058;28;20100;-69
2023/08/07 10:53:45;;;;;;;8.02;5.70;;;11.50;90.90;;;;;;5052843;28;20394;-69
2023/08/07 10:56:34;;;;;;;13.85;8.45;;;11.50;91.00;;;;;;5055967;28;20029;-69
2023/08/07 10:59:13;;;;;;;18.35;10.60;;;11.50;91.00;;;;;;5055964;28;20025;-71
2023/08/07 11:01:42;;;;;;;20.67;11.60;;;11.60;91.10;;;;;;5054679;28;20020;-70
2023/08/07 11:04:16;;;;;;;25.42;13.13;;;11.70;91.00;;;;;;5055744;28;20029;-70
2023/08/07 11:06:46;;;;;;;23.27;11.73;;;11.70;90.80;;;;;;5055414;28;20507;-70
2023/08/07 11:09:14;;;;;;;22.48;12.00;;;11.80;90.40;;;;;;5055699;28;20036;-70
2023/08/07 11:11:43;;;;;;;16.70;9.27;;;11.90;90.20;;;;;;5055185;28;20040;-69
2023/08/07 11:14:13;;;;;;;12.68;8.25;;;11.90;89.90;;;;;;5054482;28;20036;-70
2023/08/07 11:16:41;;;;;;;11.13;8.05;;;11.90;89.70;;;;;;5055382;28;20427;-70
2023/08/07 11:19:10;;;;;;;11.07;7.75;;;11.70;89.90;;;;;;5055428;28;20029;-70
2023/08/07 11:21:38;;;;;;;13.20;7.82;;;11.70;90.30;;;;;;5055295;28;20036;-70
2023/08/07 11:24:06;;;;;;;10.05;7.22;;;11.70;90.40;;;;;;5054302;28;20455;-69
2023/08/07 11:26:34;;;;;;;12.38;7.53;;;11.70;90.30;;;;;;5054330;28;20063;-70
2023/08/07 11:29:01;;;;;;;13.65;8.23;;;11.70;90.30;;;;;;5054370;28;20029;-69
2023/08/07 11:31:29;;;;;;;13.75;10.43;;;11.70;90.10;;;;;;5055382;28;20079;-70
2023/08/07 11:33:59;;;;;;;12.15;10.52;;;11.60;90.40;;;;;;5055112;28;20029;-69
2023/08/07 11:36:27;;;;;;;11.30;9.18;;;11.60;90.60;;;;;;5054116;28;20033;-69
2023/08/07 11:38:54;;;;;;;15.90;8.45;;;11.60;90.80;;;;;;5054064;28;20443;-68
2023/08/07 11:41:22;;;;;;;12.00;8.05;;;11.60;90.80;;;;;;5054044;28;20028;-69
2023/08/07 11:43:49;;;;;;;12.77;7.50;;;11.70;90.80;;;;;;5054123;28;20450;-69
2023/08/07 11:46:17;;;;;;;11.60;7.18;;;11.50;90.90;;;;;;5055111;28;20025;-69
2023/08/07 11:48:47;;;;;;;11.27;6.63;;;11.50;91.00;;;;;;5054106;28;20022;-70
2023/08/07 11:51:15;;;;;;;11.05;7.65;;;11.50;91.10;;;;;;5054040;28;20032;-69
2023/08/07 11:53:43;;;;;;;12.43;8.15;;;11.40;91.30;;;;;;5054127;28;20078;-69
2023/08/07 11:56:15;;;;;;;13.73;8.15;;;11.40;91.40;;;;;;5054139;28;20024;-69
2023/08/07 11:58:48;;;;;;;11.40;7.63;;;11.50;91.50;;;;;;5053933;28;20131;-69
2023/08/07 12:01:19;;;;;;;10.77;7.00;;;11.50;91.50;;;;;;5054042;28;20466;-68
2023/08/07 12:03:57;;;;;;;10.38;6.72;;;11.50;91.50;;;;;;5053946;28;20025;-69
2023/08/07 12:06:26;;;;;;;9.57;6.60;;;11.40;91.40;;;;;;5054084;28;20467;-68
2023/08/07 12:08:57;;;;;;;9.90;6.28;;;11.50;91.60;;;;;;5053899;28;20025;-69
2023/08/07 12:11:25;;;;;;;9.77;5.73;;;11.60;91.40;;;;;;5053706;28;20450;-69
2023/08/07 12:13:52;;;;;;;9.75;6.15;;;11.70;91.00;;;;;;5053996;28;20033;-70
2023/08/07 12:16:20;;;;;;;9.30;6.45;;;11.70;90.60;;;;;;5054889;28;20025;-70
2023/08/07 12:18:50;;;;;;;8.43;6.22;;;11.70;90.50;;;;;;5055134;28;20031;-68
2023/08/07 12:21:25;;;;;;;12.05;6.80;;;11.70;90.50;;;;;;5054973;28;20071;-68
2023/08/07 12:23:56;;;;;;;9.60;6.40;;;11.50;90.90;;;;;;5058097;28;20021;-69
2023/08/07 12:26:24;;;;;;;10.25;6.47;;;11.60;91.10;;;;;;5058371;28;20029;-66
2023/08/07 12:28:52;;;;;;;9.40;5.95;;;11.60;91.20;;;;;;5058425;28;20052;-67
2023/08/07 12:31:20;;;;;;;9.40;6.13;;;11.50;91.10;;;;;;5058040;28;20035;-67
2023/08/07 12:33:47;;;;;;;9.90;6.15;;;11.50;91.40;;;;;;5058498;28;20061;-66
2023/08/07 12:36:14;;;;;;;10.68;6.57;;;11.40;91.60;;;;;;5059649;28;20033;-66
2023/08/07 12:38:42;;;;;;;8.70;6.47;;;11.40;91.60;;;;;;5059306;28;20474;-65
2023/08/07 12:41:10;;;;;;;11.15;6.15;;;11.50;91.70;;;;;;5058335;28;20040;-66
2023/08/07 12:43:37;;;;;;;10.00;6.18;;;11.50;91.50;;;;;;5058567;28;20397;-66
2023/08/07 12:46:04;;;;;;;8.98;6.10;;;11.50;91.50;;;;;;5058405;28;20021;-66
2023/08/07 12:48:32;;;;;;;9.82;6.05;;;11.60;91.50;;;;;;5058206;28;20021;-66
2023/08/07 12:50:59;;;;;;;9.60;6.15;;;11.60;91.20;;;;;;5059165;28;20451;-66
2023/08/07 12:53:26;;;;;;;15.07;8.60;;;11.70;91.20;;;;;;5058258;28;20043;-66
2023/08/07 12:55:54;;;;;;;12.55;7.05;;;11.70;91.00;;;;;;5058345;28;20441;-66